Latest Weather Observations for Penrith

IDN60901

Issued at 1:21 am EST Tuesday 23 May 2017 (issued every 10 minutes, with the page automatically refreshed every 10 minutes)

About weather observations | Map of Sydney area stations | Latest observations for Sydney area | Other Formats
Station Details ID: 067113 Name: PENRITH LAKES AWS Lat: -33.72 Lon: 150.68 Height: 24.7 m
Data from the previous 72 hours. | See also: Recent months at Penrith
Date/Time
EST
Temp
°C
App
Temp
°C
Dew
Point
°C
Rel
Hum
%
Delta-T
°C
Wind Press
QNH
hPa
Press
MSL
hPa
Rain since
9am
mm
Dir  Spd
km/h
Gust
km/h
Spd
kts
Gust
kts
23/01:00am 14.3 15.6 14.0 98 0.2 CALM 0 0 0 0 - - -
23/12:30am 14.3 15.2 14.0 98 0.2 S 2 4 1 2 - - -
23/12:00am 14.5 15.1 14.2 98 0.2 SSE 4 4 2 2 - - -
 
Date/Time
EST
Temp
°C
App
Temp
°C
Dew
Point
°C
Rel
Hum
%
Delta-T
°C
Wind Press
QNH
hPa
Press
MSL
hPa
Rain since
9am
mm
Dir  Spd
km/h
Gust
km/h
Spd
kts
Gust
kts
22/11:30pm 14.4 14.9 14.1 98 0.2 SSE 4 6 2 3 - - -
22/11:00pm 14.4 15.3 14.1 98 0.2 SE 2 4 1 2 - - -
22/10:30pm 14.4 15.3 14.1 98 0.2 SE 2 2 1 1 - - -
22/10:00pm 14.2 14.7 13.9 98 0.2 SSE 4 6 2 3 - - -
22/09:30pm 14.4 15.7 14.1 98 0.2 CALM 0 0 0 0 - - -
22/09:00pm 14.5 15.1 14.2 98 0.2 SW 4 4 2 2 - - -
22/08:30pm 14.7 15.4 14.4 98 0.2 SSW 4 6 2 3 - - -
22/08:00pm 15.3 16.9 15.0 98 0.2 CALM 0 2 0 1 - - -
22/07:30pm 15.7 17.5 15.4 98 0.2 CALM 0 0 0 0 - - -
22/07:00pm 15.6 17.0 15.3 98 0.2 W 2 6 1 3 - - -
22/06:30pm 16.1 17.6 15.8 98 0.2 NW 2 6 1 3 - - -
22/06:00pm 16.3 18.2 15.7 96 0.4 CALM 0 0 0 0 - - -
22/05:30pm 16.9 18.3 15.4 91 0.9 NW 2 4 1 2 - - -
22/05:00pm 17.6 18.4 14.7 83 1.7 NW 4 6 2 3 - - -
22/04:30pm 18.9 19.5 15.4 80 2.1 NW 6 6 3 3 - - -
22/04:00pm 19.5 20.0 13.9 70 3.2 N 4 6 2 3 - - -
22/03:30pm 20.7 19.9 12.9 61 4.4 N 9 11 5 6 - - -
22/01:30pm 21.2 - - - - N 6 13 3 7 - - 0.0
22/01:00pm 20.3 - - - - NW 7 11 4 6 - - 0.0
22/12:30pm 20.6 - - - - NW 7 9 4 5 - - 0.0
22/12:00pm 19.8 - - - - NNW 2 4 1 2 - - 0.0
22/11:30am 18.4 - - - - NW 7 7 4 4 - - 0.0
22/11:00am 17.1 - - - - NNW 9 11 5 6 - - 0.0
22/10:30am 15.6 - - - - N 9 11 5 6 - - 0.0
22/10:00am 15.6 - - - - NW 4 6 2 3 - - 0.0
22/09:30am 14.5 - - - - N 4 6 2 3 - - 0.0
22/09:00am 14.1 - - - - CALM 0 0 0 0 - - 0.0
22/08:30am 12.8 - - - - S 4 6 2 3 - - 0.0
22/08:00am 12.5 - - - - CALM 0 0 0 0 - - 0.0
22/07:30am 11.7 - - - - N 2 2 1 1 - - 0.0
22/07:00am 11.1 - - - - SSE 4 4 2 2 - - 0.0
22/06:30am 11.6 - - - - S 4 6 2 3 - - 0.0
22/06:00am 12.2 - - - - CALM 0 0 0 0 - - 0.0
22/05:30am 11.7 - - - - NNE 4 4 2 2 - - 0.0
22/05:00am 11.4 - - - - N 2 4 1 2 - - 0.0
22/04:30am 11.4 - - - - CALM 0 0 0 0 - - 0.0
22/04:00am 11.8 - - - - CALM 0 0 0 0 - - 0.0
22/03:30am 12.5 - - - - CALM 0 0 0 0 - - 0.0
22/03:00am 12.2 - - - - CALM 0 0 0 0 - - 0.0
22/02:30am 12.3 - - - - SW 4 6 2 3 - - 0.0
22/02:00am 12.8 - - - - SSE 6 11 3 6 - - 0.0
22/01:30am 12.9 - - - - CALM 0 0 0 0 - - 0.0
22/01:00am 12.7 - - - - N 2 4 1 2 - - 0.0
22/12:30am 13.1 - - - - SSW 4 7 2 4 - - 0.0
22/12:00am 13.2 - - - - SSE 4 6 2 3 - - 0.0
 
Date/Time
EST
Temp
°C
App
Temp
°C
Dew
Point
°C
Rel
Hum
%
Delta-T
°C
Wind Press
QNH
hPa
Press
MSL
hPa
Rain since
9am
mm
Dir  Spd
km/h
Gust
km/h
Spd
kts
Gust
kts
21/11:30pm 13.2 - - - - CALM 0 0 0 0 - - 0.0
21/11:00pm 13.2 - - - - SSE 2 4 1 2 - - 0.0
21/10:30pm 13.3 - - - - S 4 6 2 3 - - 0.0
21/10:00pm 13.9 - - - - SSW 2 6 1 3 - - 0.0
21/09:30pm 13.8 - - - - CALM 0 0 0 0 - - 0.0
21/09:00pm 14.3 - - - - CALM 0 0 0 0 - - 0.0
21/08:30pm 14.7 - - - - CALM 0 0 0 0 - - 0.0
21/08:00pm 15.3 - - - - SW 2 4 1 2 - - 0.0
21/07:30pm 15.6 - - - - SW 4 6 2 3 - - 0.0
21/07:00pm 15.3 - - - - SW 6 7 3 4 - - 0.0
21/06:30pm 15.8 - - - - SW 7 7 4 4 - - 0.0
21/06:00pm 16.6 - - - - SE 4 4 2 2 - - 0.0
21/05:30pm 16.6 - - - - CALM 0 2 0 1 - - 0.0
21/05:00pm 17.3 - - - - WNW 2 4 1 2 - - 0.0
21/04:30pm 19.1 - - - - CALM 0 0 0 0 - - 0.0
21/04:00pm 20.2 - - - - NW 2 4 1 2 - - 0.0
21/03:30pm 21.4 - - - - CALM 0 0 0 0 - - 0.0
21/03:00pm 21.6 - - - - CALM 0 2 0 1 - - 0.0
21/02:30pm 21.4 - - - - WNW 2 6 1 3 - - 0.0
21/02:00pm 21.4 - - - - NNW 4 9 2 5 - - 0.0
21/01:30pm 20.7 - - - - NNW 6 9 3 5 - - 0.0
21/01:00pm 19.5 - - - - NW 6 6 3 3 - - 0.0
21/12:30pm 20.7 - - - - NW 2 7 1 4 - - 0.0
21/12:00pm 20.3 - - - - NW 4 7 2 4 - - 0.0
21/11:30am 19.1 - - - - N 6 7 3 4 - - 0.0
21/11:00am 18.0 - - - - NW 6 9 3 5 - - 0.0
21/10:30am 17.6 - - - - N 2 4 1 2 - - 0.0
21/10:00am 17.1 - - - - NNE 4 7 2 4 - - 0.0
21/09:30am 16.0 - - - - N 4 6 2 3 - - 0.0
21/09:00am 15.1 - - - - NNE 4 7 2 4 - - 0.0
21/08:30am 14.0 - - - - CALM 0 0 0 0 - - 0.0
21/08:00am 12.1 - - - - S 2 2 1 1 - - 0.0
21/07:30am 11.4 - - - - SSW 4 6 2 3 - - 0.0
21/07:00am 11.4 - - - - S 6 6 3 3 - - 0.0
21/06:30am 11.8 - - - - CALM 0 0 0 0 - - 0.0
21/06:00am 11.8 - - - - CALM 0 0 0 0 - - 0.0
21/05:30am 12.0 - - - - CALM 0 0 0 0 - - 0.0
21/05:00am 11.7 - - - - CALM 0 0 0 0 - - 0.0
21/04:30am 12.6 - - - - CALM 0 0 0 0 - - 0.0
21/04:00am 12.8 - - - - CALM 0 0 0 0 - - 0.0
21/03:30am 13.1 - - - - CALM 0 2 0 1 - - 0.0
21/03:00am 13.2 - - - - WNW 2 2 1 1 - - 0.0
21/02:30am 13.6 - - - - S 2 4 1 2 - - 0.0
21/02:00am 13.8 - - - - SW 4 6 2 3 - - 0.0
21/01:30am 14.5 - - - - CALM 0 0 0 0 - - 0.0
21/01:00am 14.5 - - - - SSE 4 6 2 3 - - 0.0
21/12:30am 14.9 - - - - CALM 0 6 0 3 - - 0.0
21/12:00am 15.0 - - - - SE 2 2 1 1 - - 0.0
 
Date/Time
EST
Temp
°C
App
Temp
°C
Dew
Point
°C
Rel
Hum
%
Delta-T
°C
Wind Press
QNH
hPa
Press
MSL
hPa
Rain since
9am
mm
Dir  Spd
km/h
Gust
km/h
Spd
kts
Gust
kts
20/11:30pm 15.1 - - - - WSW 4 4 2 2 - - 0.0
20/11:00pm 15.3 - - - - SW 6 6 3 3 - - 0.0
20/10:30pm 15.8 - - - - SSW 2 4 1 2 - - 0.0
20/10:00pm 16.2 - - - - SSW 6 6 3 3 - - 0.0
20/09:30pm 16.2 - - - - S 4 6 2 3 - - 0.0
20/09:00pm 16.0 - - - - SSE 2 6 1 3 - - 0.0
20/08:30pm 16.5 - - - - SSW 4 6 2 3 - - 0.0
20/08:00pm 16.9 - - - - WNW 7 7 4 4 - - 0.0
20/07:30pm 16.8 - - - - NW 6 7 3 4 - - 0.0
20/07:00pm 16.5 - - - - NNW 4 6 2 3 - - 0.0
20/06:30pm 16.9 - - - - WNW 4 6 2 3 - - 0.0
20/06:00pm 17.7 - - - - NNW 2 6 1 3 - - 0.0
20/05:30pm 18.3 - - - - NNW 6 6 3 3 - - 0.0
20/05:00pm 19.4 - - - - NNW 6 6 3 3 - - 0.0
20/04:30pm 20.6 - - - - N 7 9 4 5 - - 0.0
20/04:00pm 21.3 - - - - NNW 6 6 3 3 - - 0.0
20/03:30pm 20.9 - - - - NW 6 7 3 4 - - 0.0
20/03:00pm 22.1 - - - - WNW 4 6 2 3 - - 0.0
20/02:30pm 21.9 - - - - NW 4 6 2 3 - - 0.0
20/02:00pm 22.0 - - - - WSW 4 6 2 3 - - 0.0
20/01:30pm 20.9 - - - - NNW 2 6 1 3 - - 0.0
20/01:00pm 20.1 - - - - WSW 2 6 1 3 - - 0.0
20/12:30pm 20.3 - - - - NE 2 4 1 2 - - 0.0
20/12:00pm 19.8 - - - - E 4 6 2 3 - - 0.0
20/11:30am 20.4 - - - - ENE 4 6 2 3 - - 0.0
20/11:00am 19.4 - - - - NW 6 9 3 5 - - 0.0
20/10:30am 18.6 - - - - NW 6 7 3 4 - - 0.0
20/10:00am 17.9 - - - - SSE 2 4 1 2 - - 0.0
20/09:30am 17.4 - - - - SE 4 6 2 3 - - 0.0
20/09:00am 16.0 - - - - SSE 4 6 2 3 - - 8.6
20/08:30am 15.7 - - - - SE 4 6 2 3 - - 8.6
20/08:00am 15.9 - - - - S 6 13 3 7 - - 8.6
20/07:30am 15.9 - - - - SSW 6 6 3 3 - - 8.2
20/07:00am 15.8 - - - - SSW 4 4 2 2 - - 8.0
20/06:30am 15.7 - - - - SSE 4 4 2 2 - - 8.0
20/06:00am 15.8 - - - - CALM 0 0 0 0 - - 7.4
20/05:30am 15.8 - - - - CALM 0 0 0 0 - - 7.2
20/05:00am 15.8 - - - - E 2 2 1 1 - - 6.8
20/04:30am 15.8 - - - - SE 2 4 1 2 - - 6.6
20/04:00am 15.9 - - - - WSW 4 4 2 2 - - 6.4
20/03:30am 16.1 - - - - CALM 0 0 0 0 - - 5.8
20/03:00am 16.1 - - - - CALM 0 0 0 0 - - 5.6
20/02:30am 16.2 - - - - CALM 0 0 0 0 - - 5.4
20/02:00am 16.2 - - - - SW 2 4 1 2 - - 5.4
20/01:30am 16.3 - - - - SW 4 6 2 3 - - 5.2

Latest Capital City Observations: Canberra | Sydney | Melbourne | Brisbane | Adelaide | Perth | Hobart | Darwin

Other Formats:

Comma delimited format used in spreadsheet applications
http://www.bom.gov.au/fwo/IDN60901/IDN60901.94763.axf

JavaScript Object Notation format (JSON) in row-major order
http://www.bom.gov.au/fwo/IDN60901/IDN60901.94763.json